x

Rock Of Ages, Mi (roam4) Weather Station

6:00pm - Fri 24th Mar 2017 All times are CDT. -5 hours from GMT.

  • Wind
    21mph, 22mph gusts
  • Air Temp 35°f
  • Sea Pressure 1024.5mb
  • Rock Of Ages, Mi
  • Rock Of Ages, Mi

More Historic Weather Station data

Upgrade to MSW Pro to gain access to the past 30 days of data for over 8000 Wavebouys and Weather Stations around the globe.

Join Pro

Comparision Forecast

View Surf forecast
   
Fri 03/24 6:00pm 21 22 mph 1024.5mb 35f
5:00pm 22 23 mph 1024.1mb 35f
4:00pm 11 13 mph 1023.5mb 35f
3:00pm 17 18 mph 1022.7mb 36f
2:00pm 15
mph
1021.9mb 36f
1:00pm 9 10 mph 1021.1mb 36f
12:00pm 9 10 mph 1019.9mb 37f
11:00am 8 9 mph 1018.8mb 38f
10:00am 6
mph
1018.2mb 37f
9:00am 13
mph
1016.8mb 38f
8:00am 13
mph
1016.3mb 34f
7:00am 15 16 mph 1016mb 33f
6:00am 15
mph
1014.7mb 33f
5:00am 11 13 mph 1014.4mb 33f
4:00am 11 13 mph 1014.6mb 33f
3:00am 10 11 mph 1015.1mb 32f
2:00am 8
mph
1015.1mb 32f
1:00am 6 7 mph 1015.4mb 32f
12:00am 9 10 mph 1015.8mb 32f
Thu 03/23 11:00pm 15 16 mph 1015.3mb 32f
10:00pm 13 15 mph 1016.6mb 32f
9:00pm 11
mph
1015.9mb 34f
8:00pm 9 10 mph 1015.6mb 33f
7:00pm 17 18 mph 1015.6mb 33f
6:00pm 21 22 mph 1017mb 32f
5:00pm 20 21 mph 1016.4mb 33f
4:00pm 20 21 mph 1017.5mb 35f
3:00pm 23 25 mph 1018.4mb 34f
2:00pm 23 26 mph 1019mb 34f
1:00pm 26 30 mph 1020mb 34f
12:00pm 30 31 mph 1020.9mb 33f
11:00am 29 31 mph 1021.4mb 33f
10:00am 28 31 mph 1021.8mb 33f
9:00am 24 26 mph 1024.3mb 31f
8:00am 22 23 mph 1026mb 31f
7:00am 26
mph
1025.9mb 33f
6:00am 25 26 mph 1026.2mb 33f
5:00am 23 25 mph 1026.8mb 33f
4:00am 20 22 mph 1028mb 33f
3:00am 22 23 mph 1028.5mb 33f
2:00am 21 22 mph 1028.6mb 32f
1:00am 21 22 mph 1029.5mb 30f
12:00am 21 22 mph 1030.3mb 29f
Wed 03/22 11:00pm 20 21 mph 1031.2mb 28f
10:00pm 16 18 mph 1032mb 28f
9:00pm 11 13 mph 1032.8mb 26f
8:00pm 8 9 mph 1033.2mb 24f
7:00pm 8 9 mph 1033.4mb 25f
6:00pm 6 8 mph 1034mb 30f
5:00pm 9 13 mph 1034.9mb 29f
4:00pm 14 17 mph 1035.9mb 28f
3:00pm 10 13 mph 1036.9mb 27f
2:00pm 11 14 mph 1037.8mb 26f
1:00pm 7 9 mph 1038.5mb 26f
12:00pm 9 10 mph 1039.1mb 25f
11:00am 2 3 mph 1039.5mb 24f
10:00am 1 2 mph 1039.8mb 24f
9:00am 5
mph
1039.7mb 24f
8:00am 6 8 mph 1039.4mb 20f
7:00am 5 7 mph 1039.7mb 17f
6:00am 7 9 mph 1039.4mb 16f
5:00am 9 11 mph 1039mb 16f
4:00am 13 14 mph 1038.9mb 17f
3:00am 16 17 mph 1038.9mb 17f
2:00am 18 21 mph 1038.3mb 18f
1:00am 21 23 mph 1037.6mb 18f
12:00am 22 24 mph 1037.5mb 19f
Tue 03/21 11:00pm 25 29 mph 1037mb 19f
10:00pm 22 25 mph 1036.5mb 21f
9:00pm 21 22 mph 1035.7mb 22f
8:00pm 21 22 mph 1034.5mb 23f
7:00pm 22
mph
1033.4mb 25f
6:00pm 20 24 mph 1032.8mb 28f
5:00pm 23 24 mph 1032.2mb 28f
4:00pm 21 24 mph 1032.1mb 25f
3:00pm 14 16 mph 1032mb 26f
2:00pm 20 23 mph 1031.7mb 24f
1:00pm 18 20 mph 1031.5mb 24f
12:00pm 25 28 mph 1031.3mb 23f
11:00am 28 30 mph 1030.4mb 24f
10:00am 23 28 mph 1029.8mb 23f
9:00am 24 28 mph 1028.7mb 22f
8:00am 33 39 mph 1026.3mb 23f
7:00am 32 33 mph 1025mb 26f
6:00am 26 31 mph 1023.4mb 30f
5:00am 32 38 mph 1021.7mb 30f
4:00am 41 45 mph 1018.4mb 31f
3:00am 29 34 mph 1018.1mb 33f
2:00am 29 31 mph 1017.6mb 35f
1:00am 48 53 mph 1015.6mb 37f